Terminal Aerodrome Forecast
Issued by NWS

Home | Current Version | Previous Version | Text Only | Print | Product List | Glossary On
Versions: 1 2 3 4 5 6 7 8 9 10 11 12 13 14 15 16 17 18 19
000
FTUS42 KJAX 300500 RRA
TAFVQQ
TAF
KVQQ 300545Z 3006/3106 17003KT P6SM SCT007 SCT015
      TEMPO 3006/3007 BKN007
     FM301500 18005KT P6SM SCT035
     FM302000 13010KT P6SM VCTS SCT020 BKN035CB BKN120
     FM310000 12007KT P6SM VCSH SCT030 BKN120=

USA.gov is the U.S. government's official web portal to all federal, state and local government web resources and services.